sensor_id;sensor_type;location;lat;lon;timestamp;temperature;humidity
14008;DHT22;61651;45.508;12.232;2022-08-20T00:01:32;24.20;99.90
14008;DHT22;61651;45.508;12.232;2022-08-20T00:04:34;24.10;99.90
14008;DHT22;61651;45.508;12.232;2022-08-20T00:07:36;24.10;99.90
14008;DHT22;61651;45.508;12.232;2022-08-20T00:10:42;24.10;99.90
14008;DHT22;61651;45.508;12.232;2022-08-20T00:13:51;24.10;99.90
14008;DHT22;61651;45.508;12.232;2022-08-20T00:16:53;24.00;99.90
14008;DHT22;61651;45.508;12.232;2022-08-20T00:19:56;24.00;99.90
14008;DHT22;61651;45.508;12.232;2022-08-20T00:22:58;24.00;99.90
14008;DHT22;61651;45.508;12.232;2022-08-20T00:26:03;23.90;99.90
14008;DHT22;61651;45.508;12.232;2022-08-20T00:29:05;23.80;99.90
14008;DHT22;61651;45.508;12.232;2022-08-20T00:32:07;23.60;99.90
14008;DHT22;61651;45.508;12.232;2022-08-20T00:35:09;23.40;99.90
14008;DHT22;61651;45.508;12.232;2022-08-20T00:38:11;23.50;99.90
14008;DHT22;61651;45.508;12.232;2022-08-20T00:41:17;23.50;99.90
14008;DHT22;61651;45.508;12.232;2022-08-20T00:44:21;23.60;99.90
14008;DHT22;61651;45.508;12.232;2022-08-20T00:47:23;23.50;99.90
14008;DHT22;61651;45.508;12.232;2022-08-20T00:50:31;23.50;99.90
14008;DHT22;61651;45.508;12.232;2022-08-20T00:53:35;23.60;99.90
14008;DHT22;61651;45.508;12.232;2022-08-20T00:56:40;23.60;99.90
14008;DHT22;61651;45.508;12.232;2022-08-20T00:59:43;23.60;99.90
14008;DHT22;61651;45.508;12.232;2022-08-20T01:02:46;23.70;99.90
14008;DHT22;61651;45.508;12.232;2022-08-20T01:05:50;23.70;99.90
14008;DHT22;61651;45.508;12.232;2022-08-20T01:08:53;23.70;99.90
14008;DHT22;61651;45.508;12.232;2022-08-20T01:11:56;23.70;99.90
14008;DHT22;61651;45.508;12.232;2022-08-20T01:15:00;23.70;99.90
14008;DHT22;61651;45.508;12.232;2022-08-20T01:18:03;23.50;99.90
14008;DHT22;61651;45.508;12.232;2022-08-20T01:21:06;23.00;99.90
14008;DHT22;61651;45.508;12.232;2022-08-20T01:24:16;22.70;99.90
14008;DHT22;61651;45.508;12.232;2022-08-20T01:27:22;22.80;99.90
14008;DHT22;61651;45.508;12.232;2022-08-20T01:30:26;23.00;99.90
14008;DHT22;61651;45.508;12.232;2022-08-20T01:33:30;23.20;99.90
14008;DHT22;61651;45.508;12.232;2022-08-20T01:36:38;23.20;99.90
14008;DHT22;61651;45.508;12.232;2022-08-20T01:39:40;23.00;99.90
14008;DHT22;61651;45.508;12.232;2022-08-20T01:42:46;22.90;99.90
14008;DHT22;61651;45.508;12.232;2022-08-20T01:45:49;22.90;99.90
14008;DHT22;61651;45.508;12.232;2022-08-20T01:48:53;23.00;99.90
14008;DHT22;61651;45.508;12.232;2022-08-20T01:51:58;23.10;99.90
14008;DHT22;61651;45.508;12.232;2022-08-20T01:55:01;23.20;99.90
14008;DHT22;61651;45.508;12.232;2022-08-20T01:58:04;23.30;99.90
14008;DHT22;61651;45.508;12.232;2022-08-20T02:01:06;23.30;99.90
14008;DHT22;61651;45.508;12.232;2022-08-20T02:04:09;23.30;99.90
14008;DHT22;61651;45.508;12.232;2022-08-20T02:07:14;23.30;99.90
14008;DHT22;61651;45.508;12.232;2022-08-20T02:10:17;23.30;99.90
14008;DHT22;61651;45.508;12.232;2022-08-20T02:13:20;23.30;99.90
14008;DHT22;61651;45.508;12.232;2022-08-20T02:16:27;23.30;99.90
14008;DHT22;61651;45.508;12.232;2022-08-20T02:19:36;23.20;99.90
14008;DHT22;61651;45.508;12.232;2022-08-20T02:22:42;23.20;99.90
14008;DHT22;61651;45.508;12.232;2022-08-20T02:25:46;22.90;99.90
14008;DHT22;61651;45.508;12.232;2022-08-20T02:28:52;22.90;99.90
14008;DHT22;61651;45.508;12.232;2022-08-20T02:31:55;23.00;99.90
14008;DHT22;61651;45.508;12.232;2022-08-20T02:34:57;22.90;99.90
14008;DHT22;61651;45.508;12.232;2022-08-20T02:37:59;22.90;99.90
14008;DHT22;61651;45.508;12.232;2022-08-20T02:41:02;23.00;99.90
14008;DHT22;61651;45.508;12.232;2022-08-20T02:44:06;23.10;99.90
14008;DHT22;61651;45.508;12.232;2022-08-20T02:47:08;23.10;99.90
14008;DHT22;61651;45.508;12.232;2022-08-20T02:50:11;23.10;99.90
14008;DHT22;61651;45.508;12.232;2022-08-20T02:53:14;23.20;99.90
14008;DHT22;61651;45.508;12.232;2022-08-20T02:56:17;23.20;99.90
14008;DHT22;61651;45.508;12.232;2022-08-20T02:59:21;23.20;99.90
14008;DHT22;61651;45.508;12.232;2022-08-20T03:02:23;23.20;99.90
14008;DHT22;61651;45.508;12.232;2022-08-20T03:05:25;23.20;99.90
14008;DHT22;61651;45.508;12.232;2022-08-20T03:08:27;23.20;99.90
14008;DHT22;61651;45.508;12.232;2022-08-20T03:11:30;23.20;99.90
14008;DHT22;61651;45.508;12.232;2022-08-20T03:14:34;22.90;99.90
14008;DHT22;61651;45.508;12.232;2022-08-20T03:17:37;22.90;99.90
14008;DHT22;61651;45.508;12.232;2022-08-20T03:20:40;22.90;99.90
14008;DHT22;61651;45.508;12.232;2022-08-20T03:23:42;22.70;99.90
14008;DHT22;61651;45.508;12.232;2022-08-20T03:26:44;22.60;99.90
14008;DHT22;61651;45.508;12.232;2022-08-20T03:29:47;22.60;99.90
14008;DHT22;61651;45.508;12.232;2022-08-20T03:32:50;22.80;99.90
14008;DHT22;61651;45.508;12.232;2022-08-20T03:35:52;22.90;99.90
14008;DHT22;61651;45.508;12.232;2022-08-20T03:38:55;23.00;99.90
14008;DHT22;61651;45.508;12.232;2022-08-20T03:41:57;22.90;99.90
14008;DHT22;61651;45.508;12.232;2022-08-20T03:45:01;22.90;99.90
14008;DHT22;61651;45.508;12.232;2022-08-20T03:48:04;22.90;99.90
14008;DHT22;61651;45.508;12.232;2022-08-20T03:51:07;22.90;99.90
14008;DHT22;61651;45.508;12.232;2022-08-20T03:54:09;23.00;99.90
14008;DHT22;61651;45.508;12.232;2022-08-20T03:57:13;23.00;99.90
14008;DHT22;61651;45.508;12.232;2022-08-20T04:00:19;22.90;99.90
14008;DHT22;61651;45.508;12.232;2022-08-20T04:03:22;22.90;99.90
14008;DHT22;61651;45.508;12.232;2022-08-20T04:06:24;22.90;99.90
14008;DHT22;61651;45.508;12.232;2022-08-20T04:09:27;22.40;99.90
14008;DHT22;61651;45.508;12.232;2022-08-20T04:12:29;22.20;99.90
14008;DHT22;61651;45.508;12.232;2022-08-20T04:15:34;22.40;99.90
14008;DHT22;61651;45.508;12.232;2022-08-20T04:18:36;22.50;99.90
14008;DHT22;61651;45.508;12.232;2022-08-20T04:21:38;22.60;99.90
14008;DHT22;61651;45.508;12.232;2022-08-20T04:24:41;22.60;99.90
14008;DHT22;61651;45.508;12.232;2022-08-20T04:27:43;22.70;99.90
14008;DHT22;61651;45.508;12.232;2022-08-20T04:30:47;22.60;99.90
14008;DHT22;61651;45.508;12.232;2022-08-20T04:33:49;22.60;99.90
14008;DHT22;61651;45.508;12.232;2022-08-20T04:36:51;22.10;99.90
14008;DHT22;61651;45.508;12.232;2022-08-20T04:39:53;22.00;99.90
14008;DHT22;61651;45.508;12.232;2022-08-20T04:43:13;21.80;99.90
14008;DHT22;61651;45.508;12.232;2022-08-20T04:46:16;21.60;99.90
14008;DHT22;61651;45.508;12.232;2022-08-20T04:49:18;21.50;99.90
14008;DHT22;61651;45.508;12.232;2022-08-20T04:52:26;21.40;99.90
14008;DHT22;61651;45.508;12.232;2022-08-20T04:55:29;21.40;99.90
14008;DHT22;61651;45.508;12.232;2022-08-20T04:58:33;21.50;99.90
14008;DHT22;61651;45.508;12.232;2022-08-20T05:01:37;21.70;99.90
14008;DHT22;61651;45.508;12.232;2022-08-20T05:04:39;21.70;99.90
14008;DHT22;61651;45.508;12.232;2022-08-20T05:07:43;21.90;99.90
14008;DHT22;61651;45.508;12.232;2022-08-20T05:10:46;22.10;99.90
14008;DHT22;61651;45.508;12.232;2022-08-20T05:13:48;22.10;99.90
14008;DHT22;61651;45.508;12.232;2022-08-20T05:16:54;22.20;99.90
14008;DHT22;61651;45.508;12.232;2022-08-20T05:19:57;22.30;99.90
14008;DHT22;61651;45.508;12.232;2022-08-20T05:23:00;22.50;99.90
14008;DHT22;61651;45.508;12.232;2022-08-20T05:26:03;22.60;99.90
14008;DHT22;61651;45.508;12.232;2022-08-20T05:29:07;22.70;99.90
14008;DHT22;61651;45.508;12.232;2022-08-20T05:32:10;22.80;99.90
14008;DHT22;61651;45.508;12.232;2022-08-20T05:35:12;23.00;99.90
14008;DHT22;61651;45.508;12.232;2022-08-20T05:38:17;23.20;99.90
14008;DHT22;61651;45.508;12.232;2022-08-20T05:41:20;23.30;99.90
14008;DHT22;61651;45.508;12.232;2022-08-20T05:44:22;23.40;99.90
14008;DHT22;61651;45.508;12.232;2022-08-20T05:47:26;23.50;99.90
14008;DHT22;61651;45.508;12.232;2022-08-20T05:50:29;23.60;99.90
14008;DHT22;61651;45.508;12.232;2022-08-20T05:53:31;23.80;99.90
14008;DHT22;61651;45.508;12.232;2022-08-20T05:56:34;23.90;99.90
14008;DHT22;61651;45.508;12.232;2022-08-20T05:59:36;23.90;99.90
14008;DHT22;61651;45.508;12.232;2022-08-20T06:02:41;23.90;99.90
14008;DHT22;61651;45.508;12.232;2022-08-20T06:06:00;23.80;99.90
14008;DHT22;61651;45.508;12.232;2022-08-20T06:09:03;23.90;99.90
14008;DHT22;61651;45.508;12.232;2022-08-20T06:12:05;23.70;99.90
14008;DHT22;61651;45.508;12.232;2022-08-20T06:15:09;23.70;99.90
14008;DHT22;61651;45.508;12.232;2022-08-20T06:18:13;23.70;99.90
14008;DHT22;61651;45.508;12.232;2022-08-20T06:21:15;23.80;99.90
14008;DHT22;61651;45.508;12.232;2022-08-20T06:24:17;24.00;99.90
14008;DHT22;61651;45.508;12.232;2022-08-20T06:27:20;24.10;99.90
14008;DHT22;61651;45.508;12.232;2022-08-20T06:30:22;24.20;99.90
14008;DHT22;61651;45.508;12.232;2022-08-20T06:33:26;24.40;99.90
14008;DHT22;61651;45.508;12.232;2022-08-20T06:36:28;24.50;99.90
14008;DHT22;61651;45.508;12.232;2022-08-20T06:39:30;24.60;99.90
14008;DHT22;61651;45.508;12.232;2022-08-20T06:42:33;24.70;99.90
14008;DHT22;61651;45.508;12.232;2022-08-20T06:45:35;24.80;99.90
14008;DHT22;61651;45.508;12.232;2022-08-20T06:48:40;24.70;99.90
14008;DHT22;61651;45.508;12.232;2022-08-20T06:51:42;24.70;99.90
14008;DHT22;61651;45.508;12.232;2022-08-20T06:54:45;24.90;99.90
14008;DHT22;61651;45.508;12.232;2022-08-20T06:57:51;25.00;99.90
14008;DHT22;61651;45.508;12.232;2022-08-20T07:00:56;25.10;99.90
14008;DHT22;61651;45.508;12.232;2022-08-20T07:04:01;25.10;99.90
14008;DHT22;61651;45.508;12.232;2022-08-20T07:07:03;25.20;99.90
14008;DHT22;61651;45.508;12.232;2022-08-20T07:10:07;25.20;99.90
14008;DHT22;61651;45.508;12.232;2022-08-20T07:13:10;25.30;99.90
14008;DHT22;61651;45.508;12.232;2022-08-20T07:16:15;25.40;99.90
14008;DHT22;61651;45.508;12.232;2022-08-20T07:19:18;25.60;99.90
14008;DHT22;61651;45.508;12.232;2022-08-20T07:22:20;25.80;99.90
14008;DHT22;61651;45.508;12.232;2022-08-20T07:25:23;25.90;99.90
14008;DHT22;61651;45.508;12.232;2022-08-20T07:28:26;26.10;99.90
14008;DHT22;61651;45.508;12.232;2022-08-20T07:31:29;26.30;99.90
14008;DHT22;61651;45.508;12.232;2022-08-20T07:34:50;26.50;99.90
14008;DHT22;61651;45.508;12.232;2022-08-20T07:37:52;26.60;99.90
14008;DHT22;61651;45.508;12.232;2022-08-20T07:40:57;26.80;99.90
14008;DHT22;61651;45.508;12.232;2022-08-20T07:43:59;26.90;99.90
14008;DHT22;61651;45.508;12.232;2022-08-20T07:47:01;27.00;99.90
14008;DHT22;61651;45.508;12.232;2022-08-20T07:50:08;27.00;99.90
14008;DHT22;61651;45.508;12.232;2022-08-20T07:53:10;27.10;99.90
14008;DHT22;61651;45.508;12.232;2022-08-20T07:56:15;27.10;99.90
14008;DHT22;61651;45.508;12.232;2022-08-20T07:59:19;27.20;99.90
14008;DHT22;61651;45.508;12.232;2022-08-20T08:02:24;27.30;99.90
14008;DHT22;61651;45.508;12.232;2022-08-20T08:05:28;27.30;99.90
14008;DHT22;61651;45.508;12.232;2022-08-20T08:08:31;27.40;99.90
14008;DHT22;61651;45.508;12.232;2022-08-20T08:11:35;27.40;99.90
14008;DHT22;61651;45.508;12.232;2022-08-20T08:14:39;27.50;99.90
14008;DHT22;61651;45.508;12.232;2022-08-20T08:17:42;27.50;99.90
14008;DHT22;61651;45.508;12.232;2022-08-20T08:20:47;27.60;99.90
14008;DHT22;61651;45.508;12.232;2022-08-20T08:23:52;27.70;99.90
14008;DHT22;61651;45.508;12.232;2022-08-20T08:26:54;27.70;99.90
14008;DHT22;61651;45.508;12.232;2022-08-20T08:29:56;27.80;99.90
14008;DHT22;61651;45.508;12.232;2022-08-20T08:32:58;27.80;99.90
14008;DHT22;61651;45.508;12.232;2022-08-20T08:36:19;27.90;99.90
14008;DHT22;61651;45.508;12.232;2022-08-20T08:39:21;27.90;99.90
14008;DHT22;61651;45.508;12.232;2022-08-20T08:42:32;28.00;99.90
14008;DHT22;61651;45.508;12.232;2022-08-20T08:45:39;28.10;99.90
14008;DHT22;61651;45.508;12.232;2022-08-20T08:48:45;28.10;99.90
14008;DHT22;61651;45.508;12.232;2022-08-20T08:51:50;28.10;99.90
14008;DHT22;61651;45.508;12.232;2022-08-20T08:54:57;28.10;99.90
14008;DHT22;61651;45.508;12.232;2022-08-20T08:58:01;28.20;99.90
14008;DHT22;61651;45.508;12.232;2022-08-20T09:01:08;28.10;99.90
14008;DHT22;61651;45.508;12.232;2022-08-20T09:04:12;28.00;99.90
14008;DHT22;61651;45.508;12.232;2022-08-20T09:07:17;27.90;99.90
14008;DHT22;61651;45.508;12.232;2022-08-20T09:10:20;27.90;99.90
14008;DHT22;61651;45.508;12.232;2022-08-20T09:13:22;27.70;99.90
14008;DHT22;61651;45.508;12.232;2022-08-20T09:16:24;27.70;99.90
14008;DHT22;61651;45.508;12.232;2022-08-20T09:19:27;27.60;99.90
14008;DHT22;61651;45.508;12.232;2022-08-20T09:22:30;27.50;99.90
14008;DHT22;61651;45.508;12.232;2022-08-20T09:25:33;27.70;99.90
14008;DHT22;61651;45.508;12.232;2022-08-20T09:28:35;27.70;99.90
14008;DHT22;61651;45.508;12.232;2022-08-20T09:31:38;27.60;99.90
14008;DHT22;61651;45.508;12.232;2022-08-20T09:34:42;27.70;99.90
14008;DHT22;61651;45.508;12.232;2022-08-20T09:37:45;27.70;99.90
14008;DHT22;61651;45.508;12.232;2022-08-20T09:40:47;27.80;99.90
14008;DHT22;61651;45.508;12.232;2022-08-20T09:43:49;27.80;99.90
14008;DHT22;61651;45.508;12.232;2022-08-20T09:46:51;27.70;99.90
14008;DHT22;61651;45.508;12.232;2022-08-20T09:49:53;27.80;99.90
14008;DHT22;61651;45.508;12.232;2022-08-20T09:52:58;27.90;99.90
14008;DHT22;61651;45.508;12.232;2022-08-20T09:56:02;27.90;99.90
14008;DHT22;61651;45.508;12.232;2022-08-20T09:59:04;28.00;99.90
14008;DHT22;61651;45.508;12.232;2022-08-20T10:02:06;28.10;99.90
14008;DHT22;61651;45.508;12.232;2022-08-20T10:05:09;28.30;99.90
14008;DHT22;61651;45.508;12.232;2022-08-20T10:08:12;28.50;99.90
14008;DHT22;61651;45.508;12.232;2022-08-20T10:11:16;28.60;99.90
14008;DHT22;61651;45.508;12.232;2022-08-20T10:14:18;28.90;99.90
14008;DHT22;61651;45.508;12.232;2022-08-20T10:17:20;29.00;99.90
14008;DHT22;61651;45.508;12.232;2022-08-20T10:20:24;29.00;99.90
14008;DHT22;61651;45.508;12.232;2022-08-20T10:23:27;29.20;99.90
14008;DHT22;61651;45.508;12.232;2022-08-20T10:26:29;29.50;99.90
14008;DHT22;61651;45.508;12.232;2022-08-20T10:29:32;29.40;99.90
14008;DHT22;61651;45.508;12.232;2022-08-20T10:32:34;29.20;99.90
14008;DHT22;61651;45.508;12.232;2022-08-20T10:35:36;29.40;99.90
14008;DHT22;61651;45.508;12.232;2022-08-20T10:38:39;29.60;99.90
14008;DHT22;61651;45.508;12.232;2022-08-20T10:41:41;29.90;99.90
14008;DHT22;61651;45.508;12.232;2022-08-20T10:44:43;30.30;99.90
14008;DHT22;61651;45.508;12.232;2022-08-20T10:47:46;30.40;99.90
14008;DHT22;61651;45.508;12.232;2022-08-20T10:50:48;30.60;99.90
14008;DHT22;61651;45.508;12.232;2022-08-20T10:53:51;30.70;99.90
14008;DHT22;61651;45.508;12.232;2022-08-20T10:56:53;30.80;99.90
14008;DHT22;61651;45.508;12.232;2022-08-20T10:59:58;31.00;99.90
14008;DHT22;61651;45.508;12.232;2022-08-20T11:03:00;31.20;99.90
14008;DHT22;61651;45.508;12.232;2022-08-20T11:06:02;31.10;99.90
14008;DHT22;61651;45.508;12.232;2022-08-20T11:09:06;30.90;99.90
14008;DHT22;61651;45.508;12.232;2022-08-20T11:12:08;30.80;99.90
14008;DHT22;61651;45.508;12.232;2022-08-20T11:15:10;30.80;99.90
14008;DHT22;61651;45.508;12.232;2022-08-20T11:18:12;30.70;99.90
14008;DHT22;61651;45.508;12.232;2022-08-20T11:21:14;30.90;99.90
14008;DHT22;61651;45.508;12.232;2022-08-20T11:24:18;31.30;99.90
14008;DHT22;61651;45.508;12.232;2022-08-20T11:27:23;31.50;99.90
14008;DHT22;61651;45.508;12.232;2022-08-20T11:30:28;31.80;99.90
14008;DHT22;61651;45.508;12.232;2022-08-20T11:33:30;32.00;99.90
14008;DHT22;61651;45.508;12.232;2022-08-20T11:36:32;32.00;99.90
14008;DHT22;61651;45.508;12.232;2022-08-20T11:39:35;31.80;99.90
14008;DHT22;61651;45.508;12.232;2022-08-20T11:42:37;32.20;99.90
14008;DHT22;61651;45.508;12.232;2022-08-20T11:45:39;32.50;99.90
14008;DHT22;61651;45.508;12.232;2022-08-20T11:48:41;32.70;99.90
14008;DHT22;61651;45.508;12.232;2022-08-20T11:51:43;32.70;99.90
14008;DHT22;61651;45.508;12.232;2022-08-20T11:54:47;32.70;99.90
14008;DHT22;61651;45.508;12.232;2022-08-20T11:57:49;32.70;99.90
14008;DHT22;61651;45.508;12.232;2022-08-20T12:00:51;32.80;99.90
14008;DHT22;61651;45.508;12.232;2022-08-20T12:03:53;33.00;99.90
14008;DHT22;61651;45.508;12.232;2022-08-20T12:06:55;33.10;99.90
14008;DHT22;61651;45.508;12.232;2022-08-20T12:09:58;33.20;99.90
14008;DHT22;61651;45.508;12.232;2022-08-20T12:13:00;33.50;99.90
14008;DHT22;61651;45.508;12.232;2022-08-20T12:16:03;33.40;99.90
14008;DHT22;61651;45.508;12.232;2022-08-20T12:19:05;33.50;99.90
14008;DHT22;61651;45.508;12.232;2022-08-20T12:22:08;33.50;99.90
14008;DHT22;61651;45.508;12.232;2022-08-20T12:25:12;33.50;99.90
14008;DHT22;61651;45.508;12.232;2022-08-20T12:28:14;33.70;99.90
14008;DHT22;61651;45.508;12.232;2022-08-20T12:31:16;33.50;97.80
14008;DHT22;61651;45.508;12.232;2022-08-20T12:34:18;33.50;98.50
14008;DHT22;61651;45.508;12.232;2022-08-20T12:37:21;33.40;99.20
14008;DHT22;61651;45.508;12.232;2022-08-20T12:40:26;33.40;98.80
14008;DHT22;61651;45.508;12.232;2022-08-20T12:43:28;33.60;98.20
14008;DHT22;61651;45.508;12.232;2022-08-20T12:46:30;33.70;96.70
14008;DHT22;61651;45.508;12.232;2022-08-20T12:49:32;33.80;96.50
14008;DHT22;61651;45.508;12.232;2022-08-20T12:52:35;34.10;97.50
14008;DHT22;61651;45.508;12.232;2022-08-20T12:55:39;34.30;97.00
14008;DHT22;61651;45.508;12.232;2022-08-20T12:58:41;34.80;96.90
14008;DHT22;61651;45.508;12.232;2022-08-20T13:01:43;34.80;96.70
14008;DHT22;61651;45.508;12.232;2022-08-20T13:04:45;34.90;96.20
14008;DHT22;61651;45.508;12.232;2022-08-20T13:07:47;35.20;95.40
14008;DHT22;61651;45.508;12.232;2022-08-20T13:10:50;35.20;94.80
14008;DHT22;61651;45.508;12.232;2022-08-20T13:13:52;35.60;96.40
14008;DHT22;61651;45.508;12.232;2022-08-20T13:16:55;35.90;94.00
14008;DHT22;61651;45.508;12.232;2022-08-20T13:19:58;35.20;92.30
14008;DHT22;61651;45.508;12.232;2022-08-20T13:23:00;35.50;94.00
14008;DHT22;61651;45.508;12.232;2022-08-20T13:26:03;35.70;93.30
14008;DHT22;61651;45.508;12.232;2022-08-20T13:29:05;35.90;92.20
14008;DHT22;61651;45.508;12.232;2022-08-20T13:32:07;36.10;92.70
14008;DHT22;61651;45.508;12.232;2022-08-20T13:35:10;35.30;92.40
14008;DHT22;61651;45.508;12.232;2022-08-20T13:38:13;34.80;92.50
14008;DHT22;61651;45.508;12.232;2022-08-20T13:41:16;34.50;91.60
14008;DHT22;61651;45.508;12.232;2022-08-20T13:44:18;34.50;93.20
14008;DHT22;61651;45.508;12.232;2022-08-20T13:47:24;34.40;90.00
14008;DHT22;61651;45.508;12.232;2022-08-20T13:50:26;35.10;91.50
14008;DHT22;61651;45.508;12.232;2022-08-20T13:53:28;36.00;90.90
14008;DHT22;61651;45.508;12.232;2022-08-20T13:56:31;36.30;88.00
14008;DHT22;61651;45.508;12.232;2022-08-20T13:59:35;35.20;88.40
14008;DHT22;61651;45.508;12.232;2022-08-20T14:02:37;35.20;88.50
14008;DHT22;61651;45.508;12.232;2022-08-20T14:05:39;35.40;90.70
14008;DHT22;61651;45.508;12.232;2022-08-20T14:08:41;35.30;86.80
14008;DHT22;61651;45.508;12.232;2022-08-20T14:11:44;35.50;85.30
14008;DHT22;61651;45.508;12.232;2022-08-20T14:14:46;36.50;86.50
14008;DHT22;61651;45.508;12.232;2022-08-20T14:17:51;37.40;84.20
14008;DHT22;61651;45.508;12.232;2022-08-20T14:20:53;37.90;86.30
14008;DHT22;61651;45.508;12.232;2022-08-20T14:23:55;38.10;84.30
14008;DHT22;61651;45.508;12.232;2022-08-20T14:26:59;37.60;81.90
14008;DHT22;61651;45.508;12.232;2022-08-20T14:30:03;37.40;81.40
14008;DHT22;61651;45.508;12.232;2022-08-20T14:33:05;37.10;83.40
14008;DHT22;61651;45.508;12.232;2022-08-20T14:36:07;36.80;80.10
14008;DHT22;61651;45.508;12.232;2022-08-20T14:39:09;35.70;83.40
14008;DHT22;61651;45.508;12.232;2022-08-20T14:42:13;35.70;90.00
14008;DHT22;61651;45.508;12.232;2022-08-20T14:45:16;35.90;90.20
14008;DHT22;61651;45.508;12.232;2022-08-20T14:48:18;35.80;89.80
14008;DHT22;61651;45.508;12.232;2022-08-20T14:51:20;35.80;90.10
14008;DHT22;61651;45.508;12.232;2022-08-20T14:54:22;35.90;90.20
14008;DHT22;61651;45.508;12.232;2022-08-20T14:57:25;36.10;89.50
14008;DHT22;61651;45.508;12.232;2022-08-20T15:00:29;36.30;87.90
14008;DHT22;61651;45.508;12.232;2022-08-20T15:03:33;36.60;89.50
14008;DHT22;61651;45.508;12.232;2022-08-20T15:06:35;36.90;89.70
14008;DHT22;61651;45.508;12.232;2022-08-20T15:09:37;37.30;90.40
14008;DHT22;61651;45.508;12.232;2022-08-20T15:12:40;37.60;86.70
14008;DHT22;61651;45.508;12.232;2022-08-20T15:15:43;37.80;84.70
14008;DHT22;61651;45.508;12.232;2022-08-20T15:18:45;37.80;84.00
14008;DHT22;61651;45.508;12.232;2022-08-20T15:21:47;37.90;84.20
14008;DHT22;61651;45.508;12.232;2022-08-20T15:24:49;38.00;85.00
14008;DHT22;61651;45.508;12.232;2022-08-20T15:27:55;38.20;83.90
14008;DHT22;61651;45.508;12.232;2022-08-20T15:30:58;38.30;86.30
14008;DHT22;61651;45.508;12.232;2022-08-20T15:34:02;38.00;83.30
14008;DHT22;61651;45.508;12.232;2022-08-20T15:37:08;38.20;84.40
14008;DHT22;61651;45.508;12.232;2022-08-20T15:40:12;38.30;84.30
14008;DHT22;61651;45.508;12.232;2022-08-20T15:43:16;38.30;83.20
14008;DHT22;61651;45.508;12.232;2022-08-20T15:46:18;38.40;82.80
14008;DHT22;61651;45.508;12.232;2022-08-20T15:49:20;38.50;84.10
14008;DHT22;61651;45.508;12.232;2022-08-20T15:52:25;38.40;83.10
14008;DHT22;61651;45.508;12.232;2022-08-20T15:55:32;38.40;80.70
14008;DHT22;61651;45.508;12.232;2022-08-20T15:58:43;38.30;82.10
14008;DHT22;61651;45.508;12.232;2022-08-20T16:01:56;38.00;82.20
14008;DHT22;61651;45.508;12.232;2022-08-20T16:05:10;37.80;83.10
14008;DHT22;61651;45.508;12.232;2022-08-20T16:08:24;37.60;83.70
14008;DHT22;61651;45.508;12.232;2022-08-20T16:11:40;37.20;84.80
14008;DHT22;61651;45.508;12.232;2022-08-20T16:14:46;37.00;84.60
14008;DHT22;61651;45.508;12.232;2022-08-20T16:17:59;36.90;84.00
14008;DHT22;61651;45.508;12.232;2022-08-20T16:21:08;36.20;84.00
14008;DHT22;61651;45.508;12.232;2022-08-20T16:24:12;36.00;85.20
14008;DHT22;61651;45.508;12.232;2022-08-20T16:27:23;35.80;86.20
14008;DHT22;61651;45.508;12.232;2022-08-20T16:30:33;35.60;84.40
14008;DHT22;61651;45.508;12.232;2022-08-20T16:33:41;35.40;84.40
14008;DHT22;61651;45.508;12.232;2022-08-20T16:36:50;35.00;84.30
14008;DHT22;61651;45.508;12.232;2022-08-20T16:39:58;34.70;85.10
14008;DHT22;61651;45.508;12.232;2022-08-20T16:43:05;34.50;84.20
14008;DHT22;61651;45.508;12.232;2022-08-20T16:46:17;34.10;85.10
14008;DHT22;61651;45.508;12.232;2022-08-20T16:49:21;33.90;85.60
14008;DHT22;61651;45.508;12.232;2022-08-20T16:52:27;33.60;85.20
14008;DHT22;61651;45.508;12.232;2022-08-20T16:55:29;33.40;85.00
14008;DHT22;61651;45.508;12.232;2022-08-20T16:58:31;33.20;85.10
14008;DHT22;61651;45.508;12.232;2022-08-20T17:01:34;33.00;86.40
14008;DHT22;61651;45.508;12.232;2022-08-20T17:04:44;32.90;87.10
14008;DHT22;61651;45.508;12.232;2022-08-20T17:07:49;32.80;87.20
14008;DHT22;61651;45.508;12.232;2022-08-20T17:10:56;32.60;87.70
14008;DHT22;61651;45.508;12.232;2022-08-20T17:14:04;32.50;88.30
14008;DHT22;61651;45.508;12.232;2022-08-20T17:17:18;32.40;88.10
14008;DHT22;61651;45.508;12.232;2022-08-20T17:20:22;32.30;88.20
14008;DHT22;61651;45.508;12.232;2022-08-20T17:23:25;32.20;88.00
14008;DHT22;61651;45.508;12.232;2022-08-20T17:26:30;32.10;88.20
14008;DHT22;61651;45.508;12.232;2022-08-20T17:29:45;32.00;86.90
14008;DHT22;61651;45.508;12.232;2022-08-20T17:32:54;31.90;87.10
14008;DHT22;61651;45.508;12.232;2022-08-20T17:35:59;31.90;87.80
14008;DHT22;61651;45.508;12.232;2022-08-20T17:39:03;31.80;89.10
14008;DHT22;61651;45.508;12.232;2022-08-20T17:42:19;31.70;90.00
14008;DHT22;61651;45.508;12.232;2022-08-20T17:45:24;31.60;90.70
14008;DHT22;61651;45.508;12.232;2022-08-20T17:48:32;31.50;90.80
14008;DHT22;61651;45.508;12.232;2022-08-20T17:51:38;31.40;91.00
14008;DHT22;61651;45.508;12.232;2022-08-20T17:54:45;31.30;91.10
14008;DHT22;61651;45.508;12.232;2022-08-20T17:57:51;31.30;91.20
14008;DHT22;61651;45.508;12.232;2022-08-20T18:00:53;31.20;91.30
14008;DHT22;61651;45.508;12.232;2022-08-20T18:03:57;31.20;91.70
14008;DHT22;61651;45.508;12.232;2022-08-20T18:07:03;31.20;92.00
14008;DHT22;61651;45.508;12.232;2022-08-20T18:10:10;31.10;92.10
14008;DHT22;61651;45.508;12.232;2022-08-20T18:13:17;31.10;92.30
14008;DHT22;61651;45.508;12.232;2022-08-20T18:16:25;31.00;92.30
14008;DHT22;61651;45.508;12.232;2022-08-20T18:19:47;30.90;92.60
14008;DHT22;61651;45.508;12.232;2022-08-20T18:22:55;30.90;92.90
14008;DHT22;61651;45.508;12.232;2022-08-20T18:26:02;30.80;93.00
14008;DHT22;61651;45.508;12.232;2022-08-20T18:29:09;30.70;93.30
14008;DHT22;61651;45.508;12.232;2022-08-20T18:32:25;30.70;93.30
14008;DHT22;61651;45.508;12.232;2022-08-20T18:35:34;30.60;93.20
14008;DHT22;61651;45.508;12.232;2022-08-20T18:38:38;30.60;93.20
14008;DHT22;61651;45.508;12.232;2022-08-20T18:41:55;30.50;93.40
14008;DHT22;61651;45.508;12.232;2022-08-20T18:44:58;30.40;93.50
14008;DHT22;61651;45.508;12.232;2022-08-20T18:48:01;30.40;93.60
14008;DHT22;61651;45.508;12.232;2022-08-20T18:51:08;30.30;93.70
14008;DHT22;61651;45.508;12.232;2022-08-20T18:54:22;30.30;93.70
14008;DHT22;61651;45.508;12.232;2022-08-20T18:57:26;30.20;93.90
14008;DHT22;61651;45.508;12.232;2022-08-20T19:00:34;30.10;94.20
14008;DHT22;61651;45.508;12.232;2022-08-20T19:03:40;30.00;94.40